createdAt,value
2023-05-03T00:00:51.693Z,11.25
2023-05-03T00:03:23.195Z,11.22
2023-05-03T00:05:50.598Z,11.20
2023-05-03T00:08:29.462Z,11.18
2023-05-03T00:11:17.109Z,11.14
2023-05-03T00:13:46.693Z,11.11
2023-05-03T00:16:14.019Z,11.07
2023-05-03T00:18:44.458Z,11.07
2023-05-03T00:21:11.490Z,11.05
2023-05-03T00:23:38.494Z,11.03
2023-05-03T00:26:08.362Z,10.99
2023-05-03T00:28:36.235Z,10.96
2023-05-03T00:31:12.092Z,10.93
2023-05-03T00:33:39.527Z,10.89
2023-05-03T00:36:11.731Z,10.88
2023-05-03T00:38:42.809Z,10.87
2023-05-03T00:41:13.989Z,10.82
2023-05-03T00:43:40.815Z,10.79
2023-05-03T00:46:16.944Z,10.76
2023-05-03T00:48:49.263Z,10.71
2023-05-03T00:51:22.004Z,10.65
2023-05-03T00:53:49.439Z,10.60
2023-05-03T00:56:23.039Z,10.56
2023-05-03T00:59:12.480Z,10.52
2023-05-03T01:01:51.334Z,10.46
2023-05-03T01:04:22.285Z,10.40
2023-05-03T01:06:58.919Z,10.35
2023-05-03T01:09:36.461Z,10.32
2023-05-03T01:12:17.087Z,10.27
2023-05-03T01:15:13.736Z,10.21
2023-05-03T01:17:51.200Z,10.13
2023-05-03T01:20:24.996Z,10.06
2023-05-03T01:23:01.998Z,10.00
2023-05-03T01:25:32.791Z,9.94
2023-05-03T01:28:11.259Z,9.86
2023-05-03T01:30:51.660Z,9.81
2023-05-03T01:33:46.681Z,9.75
2023-05-03T01:36:36.276Z,9.67
2023-05-03T01:39:27.156Z,9.61
2023-05-03T01:42:15.953Z,9.55
2023-05-03T01:44:51.313Z,9.49
2023-05-03T01:47:31.471Z,9.43
2023-05-03T01:50:17.535Z,9.37
2023-05-03T01:52:45.218Z,9.32
2023-05-03T01:55:12.667Z,9.29
2023-05-03T01:57:42.449Z,9.27
2023-05-03T02:00:29.799Z,9.26
2023-05-03T02:03:17.048Z,9.25
2023-05-03T02:05:47.036Z,9.26
2023-05-03T02:08:14.086Z,9.25
2023-05-03T02:11:01.433Z,9.25
2023-05-03T02:13:33.882Z,9.27
2023-05-03T02:16:03.732Z,9.27
2023-05-03T02:18:38.729Z,9.29
2023-05-03T02:21:07.017Z,9.30
2023-05-03T02:23:44.192Z,9.31
2023-05-03T02:26:16.700Z,9.29
2023-05-03T02:28:51.410Z,9.26
2023-05-03T02:31:38.719Z,9.22
2023-05-03T02:34:06.294Z,9.20
2023-05-03T02:36:52.042Z,9.18
2023-05-03T02:39:39.191Z,9.16
2023-05-03T02:42:25.492Z,9.17
2023-05-03T02:45:13.996Z,9.16
2023-05-03T02:47:41.040Z,9.15
2023-05-03T02:50:12.412Z,9.16
2023-05-03T02:52:42.066Z,9.16
2023-05-03T02:55:12.592Z,9.15
2023-05-03T02:58:00.129Z,9.14
2023-05-03T03:00:27.651Z,9.12
2023-05-03T03:02:54.868Z,9.11
2023-05-03T03:05:23.016Z,9.10
2023-05-03T03:07:50.028Z,9.08
2023-05-03T03:10:17.481Z,9.07
2023-05-03T03:12:45.372Z,9.05
2023-05-03T03:15:15.659Z,9.03
2023-05-03T03:17:46.102Z,9.01
2023-05-03T03:20:16.798Z,8.99
2023-05-03T03:22:55.774Z,8.99
2023-05-03T03:25:23.056Z,8.98
2023-05-03T03:27:50.272Z,8.97
2023-05-03T03:30:20.837Z,8.97
2023-05-03T03:33:12.614Z,8.96
2023-05-03T03:35:40.248Z,8.94
2023-05-03T03:38:11.850Z,8.93
2023-05-03T03:40:42.682Z,8.93
2023-05-03T03:43:30.128Z,8.92
2023-05-03T03:46:01.397Z,8.91
2023-05-03T03:48:31.104Z,8.90
2023-05-03T03:50:59.488Z,8.89
2023-05-03T03:53:33.048Z,8.90
2023-05-03T03:56:03.276Z,8.91
2023-05-03T03:58:31.448Z,8.89
2023-05-03T04:01:00.872Z,8.88
2023-05-03T04:03:28.889Z,8.87
2023-05-03T04:05:56.373Z,8.88
2023-05-03T04:08:23.751Z,8.91
2023-05-03T04:10:51.681Z,8.94
2023-05-03T04:13:29.408Z,8.97
2023-05-03T04:15:59.003Z,9.00
2023-05-03T04:18:26.460Z,9.05
2023-05-03T04:21:14.023Z,9.09
2023-05-03T04:23:43.275Z,9.13
2023-05-03T04:26:23.492Z,9.20
2023-05-03T04:29:01.472Z,9.30
2023-05-03T04:31:32.967Z,9.41
2023-05-03T04:34:15.109Z,9.53
2023-05-03T04:36:44.101Z,9.61
2023-05-03T04:39:12.954Z,9.74
2023-05-03T04:41:42.310Z,9.89
2023-05-03T04:44:09.778Z,10.03
2023-05-03T04:46:37.027Z,10.17
2023-05-03T04:49:04.294Z,10.30
2023-05-03T04:51:53.316Z,10.38
2023-05-03T04:54:29.991Z,10.44
2023-05-03T04:56:58.059Z,10.56
2023-05-03T04:59:25.319Z,11.65
2023-05-03T05:01:52.545Z,13.91
2023-05-03T05:04:19.816Z,16.08
2023-05-03T05:06:49.189Z,17.75
2023-05-03T05:09:26.480Z,19.52
2023-05-03T05:11:57.164Z,21.19
2023-05-03T05:14:27.198Z,22.82
2023-05-03T05:16:54.766Z,24.38
2023-05-03T05:19:21.923Z,25.69
2023-05-03T05:21:49.234Z,26.87
2023-05-03T05:24:16.609Z,27.76
2023-05-03T05:26:44.574Z,28.75
2023-05-03T05:29:12.866Z,29.54
2023-05-03T05:31:40.126Z,30.16
2023-05-03T05:34:07.655Z,30.80
2023-05-03T05:36:35.545Z,31.27
2023-05-03T05:39:04.012Z,31.99
2023-05-03T05:41:31.489Z,32.49
2023-05-03T05:43:59.508Z,33.07
2023-05-03T05:46:27.861Z,33.57
2023-05-03T05:48:54.968Z,34.01
2023-05-03T05:51:23.398Z,34.35
2023-05-03T05:53:50.632Z,34.72
2023-05-03T05:56:17.931Z,35.12
2023-05-03T05:58:44.902Z,35.47
2023-05-03T06:01:12.058Z,35.91
2023-05-03T06:03:39.164Z,36.19
2023-05-03T06:06:08.580Z,36.32
2023-05-03T06:08:36.568Z,36.55
2023-05-03T06:11:05.108Z,36.77
2023-05-03T06:13:34.766Z,36.92
2023-05-03T06:16:02.796Z,37.09
2023-05-03T06:18:29.715Z,37.29
2023-05-03T06:20:56.658Z,37.62
2023-05-03T06:23:24.166Z,38.03
2023-05-03T06:25:52.334Z,38.30
2023-05-03T06:28:20.515Z,38.57
2023-05-03T06:30:52.764Z,38.61
2023-05-03T06:33:20.060Z,38.45
2023-05-03T06:35:50.308Z,38.47
2023-05-03T06:38:18.325Z,38.52
2023-05-03T06:40:45.758Z,38.13
2023-05-03T06:43:12.618Z,38.07
2023-05-03T06:45:46.090Z,38.65
2023-05-03T06:48:13.136Z,39.10
2023-05-03T06:50:40.174Z,39.53
2023-05-03T06:53:07.178Z,39.78
2023-05-03T06:55:34.109Z,39.73
2023-05-03T06:58:01.583Z,39.65
2023-05-03T07:00:30.664Z,39.30
2023-05-03T07:02:57.805Z,39.35
2023-05-03T07:05:25.292Z,39.57
2023-05-03T07:07:52.860Z,39.64
2023-05-03T07:10:19.902Z,39.71
2023-05-03T07:12:46.854Z,39.70
2023-05-03T07:15:14.976Z,39.39
2023-05-03T07:17:41.828Z,39.29
2023-05-03T07:20:12.967Z,38.96
2023-05-03T07:22:40.567Z,38.64
2023-05-03T07:25:09.006Z,38.64
2023-05-03T07:27:35.968Z,38.80
2023-05-03T07:30:04.220Z,38.71
2023-05-03T07:32:31.350Z,37.94
2023-05-03T07:34:58.294Z,37.47
2023-05-03T07:37:28.212Z,37.04
2023-05-03T07:39:54.965Z,36.83
2023-05-03T07:42:21.864Z,36.26
2023-05-03T07:44:48.807Z,35.35
2023-05-03T07:47:15.745Z,34.03
2023-05-03T07:49:42.875Z,32.37
2023-05-03T07:52:10.540Z,30.77
2023-05-03T07:54:37.687Z,29.38
2023-05-03T07:57:05.049Z,28.23
2023-05-03T07:59:32.426Z,27.14
2023-05-03T08:02:01.462Z,26.55
2023-05-03T08:04:29.293Z,25.81
2023-05-03T08:06:57.168Z,24.62
2023-05-03T08:09:25.119Z,23.71
2023-05-03T08:11:52.048Z,23.19
2023-05-03T08:14:19.354Z,22.83
2023-05-03T08:16:46.702Z,22.46
2023-05-03T08:19:13.604Z,22.05
2023-05-03T08:21:40.876Z,21.66
2023-05-03T08:24:08.455Z,22.26
2023-05-03T08:26:36.181Z,23.64
2023-05-03T08:29:03.971Z,24.20
2023-05-03T08:31:31.596Z,24.25
2023-05-03T08:33:58.559Z,25.14
2023-05-03T08:36:25.813Z,25.91
2023-05-03T08:38:53.265Z,26.84
2023-05-03T08:41:30.220Z,27.90
2023-05-03T08:43:59.486Z,28.83
2023-05-03T08:46:27.120Z,29.31
2023-05-03T08:48:56.019Z,29.11
2023-05-03T08:51:25.561Z,28.05
2023-05-03T08:53:52.844Z,26.87
2023-05-03T08:56:30.768Z,26.57
2023-05-03T08:59:01.467Z,27.19
2023-05-03T09:01:28.318Z,27.56
2023-05-03T09:03:55.739Z,26.84
2023-05-03T09:06:27.282Z,25.75
2023-05-03T09:08:54.787Z,24.85
2023-05-03T09:11:26.134Z,24.75
2023-05-03T09:13:54.092Z,25.38
2023-05-03T09:16:28.959Z,25.85
2023-05-03T09:19:03.407Z,26.33
2023-05-03T09:21:31.597Z,26.07
2023-05-03T09:23:59.100Z,25.20
2023-05-03T09:26:35.317Z,24.21
2023-05-03T09:29:05.306Z,23.91
2023-05-03T09:31:34.222Z,24.30
2023-05-03T09:34:02.004Z,24.93
2023-05-03T09:36:29.092Z,25.52
2023-05-03T09:38:56.755Z,26.17
2023-05-03T09:41:31.930Z,26.25
2023-05-03T09:44:03.102Z,26.39
2023-05-03T09:46:30.408Z,25.99
2023-05-03T09:48:59.866Z,25.62
2023-05-03T09:51:27.611Z,25.77
2023-05-03T09:53:55.273Z,25.89
2023-05-03T09:56:26.938Z,25.77
2023-05-03T09:58:54.662Z,25.34
2023-05-03T10:01:23.543Z,24.67
2023-05-03T10:03:51.977Z,24.75
2023-05-03T10:06:25.185Z,25.09
2023-05-03T10:09:02.011Z,25.33
2023-05-03T10:11:29.963Z,25.64
2023-05-03T10:13:57.552Z,25.34
2023-05-03T10:16:35.343Z,24.75
2023-05-03T10:19:14.864Z,23.99
2023-05-03T10:21:57.265Z,23.36
2023-05-03T10:24:25.307Z,23.48
2023-05-03T10:26:53.236Z,23.87
2023-05-03T10:29:52.324Z,24.24
2023-05-03T10:32:39.683Z,24.50
2023-05-03T10:35:14.351Z,24.80
2023-05-03T10:37:43.868Z,25.23
2023-05-03T10:40:15.171Z,24.94
2023-05-03T10:42:45.362Z,24.21
2023-05-03T10:45:23.340Z,23.55
2023-05-03T10:48:23.148Z,23.49
2023-05-03T10:50:51.738Z,23.71
2023-05-03T10:53:43.504Z,23.68
2023-05-03T10:56:11.975Z,23.70
2023-05-03T10:58:46.292Z,23.83
2023-05-03T11:01:15.987Z,23.73
2023-05-03T11:03:53.548Z,23.46
2023-05-03T11:06:36.028Z,23.18
2023-05-03T11:09:06.167Z,22.93
2023-05-03T11:11:33.327Z,22.81
2023-05-03T11:14:00.332Z,22.97
2023-05-03T11:16:27.998Z,23.18
2023-05-03T11:18:56.419Z,23.19
2023-05-03T11:21:24.185Z,23.24
2023-05-03T11:23:51.429Z,23.19
2023-05-03T11:26:19.292Z,22.87
2023-05-03T11:28:46.750Z,22.49
2023-05-03T11:31:15.440Z,22.17
2023-05-03T11:33:43.336Z,21.75
2023-05-03T11:36:13.842Z,21.26
2023-05-03T11:38:41.594Z,20.81
2023-05-03T11:41:16.380Z,20.61
2023-05-03T11:43:46.543Z,20.67
2023-05-03T11:46:14.816Z,20.71
2023-05-03T11:48:44.281Z,20.54
2023-05-03T11:51:12.566Z,20.30
2023-05-03T11:53:40.597Z,20.01
2023-05-03T11:56:10.340Z,19.77
2023-05-03T11:58:37.467Z,19.51
2023-05-03T12:01:06.536Z,19.20
2023-05-03T12:03:34.414Z,18.95
2023-05-03T12:06:03.590Z,18.93
2023-05-03T12:08:37.973Z,19.06
2023-05-03T12:11:09.492Z,19.23
2023-05-03T12:13:39.859Z,19.37
2023-05-03T12:16:13.826Z,19.42
2023-05-03T12:18:56.038Z,19.35
2023-05-03T12:23:56.207Z,19.26
2023-05-03T12:26:26.084Z,19.38
2023-05-03T12:28:55.941Z,19.64
2023-05-03T12:31:24.549Z,19.73
2023-05-03T12:36:25.588Z,19.61
2023-05-03T12:38:56.406Z,19.44
2023-05-03T12:41:52.679Z,19.31
2023-05-03T12:44:17.192Z,19.14
2023-05-03T12:46:45.447Z,18.96
2023-05-03T12:49:15.136Z,18.71
2023-05-03T12:51:43.450Z,18.52
2023-05-03T12:54:11.765Z,18.54
2023-05-03T12:56:40.649Z,18.71
2023-05-03T12:59:38.999Z,18.90
2023-05-03T13:06:59.360Z,19.44
2023-05-03T13:09:37.944Z,19.35
2023-05-03T13:12:14.441Z,19.19
2023-05-03T13:14:43.115Z,19.10
2023-05-03T13:17:10.442Z,18.96
2023-05-03T13:19:38.029Z,18.81
2023-05-03T13:22:05.186Z,18.61
2023-05-03T13:24:32.061Z,18.34
2023-05-03T13:26:58.952Z,18.06
2023-05-03T13:29:26.924Z,17.89
2023-05-03T13:31:54.179Z,17.69
2023-05-03T13:34:21.670Z,17.56
2023-05-03T13:36:48.946Z,17.48
2023-05-03T13:39:16.574Z,17.39
2023-05-03T13:41:44.055Z,17.32
2023-05-03T13:44:12.631Z,17.22
2023-05-03T13:46:40.653Z,17.19
2023-05-03T13:49:08.800Z,17.16
2023-05-03T13:51:36.325Z,17.13
2023-05-03T13:54:04.449Z,17.13
2023-05-03T13:56:31.934Z,17.15
2023-05-03T13:58:59.618Z,17.28
2023-05-03T14:01:27.535Z,17.46
2023-05-03T14:03:54.797Z,17.64
2023-05-03T14:06:23.215Z,17.79
2023-05-03T14:08:50.999Z,17.86
2023-05-03T14:11:18.841Z,17.88
2023-05-03T14:13:56.447Z,17.91
2023-05-03T14:18:57.303Z,17.97
2023-05-03T14:21:24.705Z,17.96
2023-05-03T14:23:52.965Z,17.98
2023-05-03T14:26:22.309Z,18.03
2023-05-03T14:28:52.291Z,18.12
2023-05-03T14:31:19.247Z,18.10
2023-05-03T14:33:46.463Z,18.12
2023-05-03T14:36:13.442Z,18.11
2023-05-03T14:38:40.371Z,18.14
2023-05-03T14:41:08.066Z,18.10
2023-05-03T14:43:35.098Z,18.04
2023-05-03T14:46:02.438Z,17.94
2023-05-03T14:48:29.951Z,17.96
2023-05-03T14:50:57.643Z,17.95
2023-05-03T14:53:24.624Z,17.87
2023-05-03T14:55:53.984Z,17.84
2023-05-03T14:58:21.020Z,17.79
2023-05-03T15:00:47.999Z,17.72
2023-05-03T15:03:16.880Z,17.61
2023-05-03T15:05:48.526Z,17.51
2023-05-03T15:08:17.308Z,17.42
2023-05-03T15:10:44.798Z,17.33
2023-05-03T15:13:12.317Z,17.24
2023-05-03T15:15:43.883Z,17.14
2023-05-03T15:18:11.440Z,17.07
2023-05-03T15:20:38.993Z,17.03
2023-05-03T15:23:07.674Z,17.03
2023-05-03T15:25:35.690Z,17.01
2023-05-03T15:28:04.435Z,16.93
2023-05-03T15:30:32.292Z,16.91
2023-05-03T15:32:59.448Z,16.93
2023-05-03T15:35:26.385Z,16.94
2023-05-03T15:37:53.465Z,16.89
2023-05-03T15:40:23.733Z,16.83
2023-05-03T15:43:03.391Z,16.77
2023-05-03T15:45:31.220Z,16.73
2023-05-03T15:47:58.867Z,16.64
2023-05-03T15:50:26.110Z,16.51
2023-05-03T15:52:53.222Z,16.40
2023-05-03T15:55:20.993Z,16.27
2023-05-03T15:57:48.258Z,16.14
2023-05-03T16:00:23.076Z,16.00
2023-05-03T16:02:50.420Z,15.87
2023-05-03T16:05:17.783Z,15.77
2023-05-03T16:07:45.078Z,15.68
2023-05-03T16:10:13.408Z,15.63
2023-05-03T16:12:40.970Z,15.58
2023-05-03T16:15:12.305Z,15.53
2023-05-03T16:17:39.709Z,15.47
2023-05-03T16:20:11.751Z,15.45
2023-05-03T16:22:42.003Z,15.41
2023-05-03T16:25:10.740Z,15.37
2023-05-03T16:27:37.749Z,15.32
2023-05-03T16:30:07.188Z,15.28
2023-05-03T16:32:34.646Z,15.25
2023-05-03T16:35:03.369Z,15.22
2023-05-03T16:37:31.860Z,15.21
2023-05-03T16:39:59.016Z,15.21
2023-05-03T16:42:26.012Z,15.18
2023-05-03T16:44:53.240Z,15.13
2023-05-03T16:47:20.448Z,15.08
2023-05-03T16:49:47.292Z,15.04
2023-05-03T16:52:14.417Z,14.99
2023-05-03T16:54:42.975Z,14.94
2023-05-03T16:57:09.809Z,14.88
2023-05-03T16:59:37.145Z,14.82
2023-05-03T17:02:04.080Z,14.76
2023-05-03T17:04:31.268Z,14.69
2023-05-03T17:06:58.594Z,14.64
2023-05-03T17:09:25.646Z,14.57
2023-05-03T17:11:52.903Z,14.52
2023-05-03T17:14:20.360Z,14.47
2023-05-03T17:16:49.012Z,14.42
2023-05-03T17:19:36.844Z,14.36
2023-05-03T17:22:04.032Z,14.29
2023-05-03T17:24:31.411Z,14.25
2023-05-03T17:26:58.679Z,14.22
2023-05-03T17:29:25.701Z,14.18
2023-05-03T17:31:55.790Z,14.13
2023-05-03T17:34:25.144Z,14.10
2023-05-03T17:36:56.285Z,14.05
2023-05-03T17:39:28.650Z,14.00
2023-05-03T17:41:55.505Z,13.94
2023-05-03T17:44:22.994Z,13.88
2023-05-03T17:46:50.228Z,13.82
2023-05-03T17:49:17.130Z,13.76
2023-05-03T17:51:44.165Z,13.71
2023-05-03T17:54:11.510Z,13.66
2023-05-03T17:56:38.428Z,13.59
2023-05-03T17:59:05.370Z,13.54
2023-05-03T18:01:34.910Z,13.46
2023-05-03T18:04:22.831Z,13.35
2023-05-03T18:06:50.795Z,13.26
2023-05-03T18:09:17.882Z,13.18
2023-05-03T18:12:00.335Z,13.12
2023-05-03T18:14:27.348Z,13.04
2023-05-03T18:16:57.557Z,12.96
2023-05-03T18:19:25.098Z,12.90
2023-05-03T18:21:52.208Z,12.85
2023-05-03T18:24:19.171Z,12.78
2023-05-03T18:26:58.857Z,12.70
2023-05-03T18:29:26.020Z,12.63
2023-05-03T18:31:54.895Z,12.58
2023-05-03T18:34:26.860Z,12.53
2023-05-03T18:36:53.869Z,12.48
2023-05-03T18:39:22.780Z,12.44
2023-05-03T18:41:50.152Z,12.39
2023-05-03T18:44:17.295Z,12.34
2023-05-03T18:46:55.946Z,12.30
2023-05-03T18:49:25.371Z,12.26
2023-05-03T18:51:52.342Z,12.21
2023-05-03T18:54:22.158Z,12.18
2023-05-03T18:56:49.098Z,12.13
2023-05-03T18:59:16.129Z,12.09
2023-05-03T19:01:48.959Z,12.03
2023-05-03T19:04:16.178Z,11.98
2023-05-03T19:06:46.660Z,11.92
2023-05-03T19:09:13.793Z,11.87
2023-05-03T19:11:45.069Z,11.83
2023-05-03T19:14:12.174Z,11.78
2023-05-03T19:16:42.574Z,11.72
2023-05-03T19:19:10.761Z,11.66
2023-05-03T19:21:42.386Z,11.61
2023-05-03T19:24:13.043Z,11.55
2023-05-03T19:26:40.106Z,11.46
2023-05-03T19:29:07.966Z,11.41
2023-05-03T19:31:35.190Z,11.35
2023-05-03T19:34:12.840Z,11.30
2023-05-03T19:36:43.067Z,11.26
2023-05-03T19:39:12.183Z,11.22
2023-05-03T19:41:39.777Z,11.19
2023-05-03T19:44:07.450Z,11.16
2023-05-03T19:46:34.899Z,11.14
2023-05-03T19:49:01.924Z,11.14
2023-05-03T19:51:32.923Z,11.13
2023-05-03T19:54:01.756Z,11.10
2023-05-03T19:56:28.794Z,11.08
2023-05-03T19:58:55.934Z,11.06
2023-05-03T20:01:23.450Z,11.05
2023-05-03T20:03:53.468Z,11.03
2023-05-03T20:06:21.163Z,11.01
2023-05-03T20:08:48.407Z,11.00
2023-05-03T20:11:19.547Z,10.98
2023-05-03T20:13:46.750Z,10.95
2023-05-03T20:16:13.823Z,10.91
2023-05-03T20:18:40.975Z,10.87
2023-05-03T20:21:08.135Z,10.83
2023-05-03T20:23:38.047Z,10.82
2023-05-03T20:26:05.139Z,10.79
2023-05-03T20:28:35.127Z,10.75
2023-05-03T20:31:02.061Z,10.69
2023-05-03T20:33:29.033Z,10.62
2023-05-03T20:35:56.291Z,10.56
2023-05-03T20:38:23.481Z,10.50
2023-05-03T20:40:50.312Z,10.43
2023-05-03T20:43:17.631Z,10.40
2023-05-03T20:45:44.630Z,10.34
2023-05-03T20:48:14.733Z,10.32
2023-05-03T20:50:41.857Z,10.29
2023-05-03T20:53:29.588Z,10.25
2023-05-03T20:56:01.652Z,10.20
2023-05-03T20:58:28.957Z,10.15
2023-05-03T21:00:57.908Z,10.11
2023-05-03T21:03:27.530Z,10.05
2023-05-03T21:05:58.104Z,10.00
2023-05-03T21:08:25.563Z,9.95
2023-05-03T21:10:52.932Z,9.91
2023-05-03T21:13:29.143Z,9.87
2023-05-03T21:15:57.636Z,9.84
2023-05-03T21:18:27.212Z,9.81
2023-05-03T21:20:55.495Z,9.78
2023-05-03T21:23:22.622Z,9.73
2023-05-03T21:26:00.646Z,9.69
2023-05-03T21:28:46.534Z,9.65
2023-05-03T21:31:34.148Z,9.58
2023-05-03T21:34:03.234Z,9.54
2023-05-03T21:36:34.594Z,9.51
2023-05-03T21:39:05.167Z,9.48
2023-05-03T21:41:35.695Z,9.43
2023-05-03T21:44:05.931Z,9.39
2023-05-03T21:46:37.693Z,9.35
2023-05-03T21:49:23.325Z,9.33
2023-05-03T21:51:52.958Z,9.29
2023-05-03T21:54:40.228Z,9.24
2023-05-03T21:57:10.259Z,9.19
2023-05-03T21:59:56.362Z,9.17
2023-05-03T22:02:27.563Z,9.14
2023-05-03T22:04:54.899Z,9.11
2023-05-03T22:07:42.268Z,9.08
2023-05-03T22:10:19.447Z,9.07
2023-05-03T22:12:58.230Z,9.04
2023-05-03T22:15:25.574Z,9.01
2023-05-03T22:17:52.752Z,8.97
2023-05-03T22:20:32.263Z,8.95
2023-05-03T22:23:03.654Z,8.92
2023-05-03T22:25:33.114Z,8.89
2023-05-03T22:28:18.637Z,8.86
2023-05-03T22:30:56.594Z,8.80
2023-05-03T22:33:27.287Z,8.75
2023-05-03T22:35:57.598Z,8.71
2023-05-03T22:38:36.060Z,8.67
2023-05-03T22:41:22.135Z,8.64
2023-05-03T22:43:51.720Z,8.60
2023-05-03T22:46:32.703Z,8.57
2023-05-03T22:49:00.002Z,8.54
2023-05-03T22:51:38.640Z,8.53
2023-05-03T22:54:08.744Z,8.52
2023-05-03T22:56:39.505Z,8.50
2023-05-03T22:59:06.471Z,8.47
2023-05-03T23:01:36.187Z,8.46
2023-05-03T23:04:11.374Z,8.45
2023-05-03T23:06:43.881Z,8.43
2023-05-03T23:09:21.499Z,8.42
2023-05-03T23:11:58.957Z,8.40
2023-05-03T23:14:35.121Z,8.38
2023-05-03T23:17:22.936Z,8.38
2023-05-03T23:19:53.703Z,8.37
2023-05-03T23:22:32.255Z,8.37
2023-05-03T23:25:19.998Z,8.35
2023-05-03T23:27:50.493Z,8.32
2023-05-03T23:30:38.047Z,8.30
2023-05-03T23:33:08.648Z,8.29
2023-05-03T23:35:36.209Z,8.28
2023-05-03T23:38:23.695Z,8.25
2023-05-03T23:40:55.038Z,8.24
2023-05-03T23:43:32.937Z,8.22
2023-05-03T23:46:08.491Z,8.21
2023-05-03T23:48:56.280Z,8.19
2023-05-03T23:51:43.647Z,8.18
2023-05-03T23:54:21.705Z,8.16
2023-05-03T23:56:49.109Z,8.15
2023-05-03T23:59:19.382Z,8.13
